AirNav   Pilot Hours Calculator
 
 1703 users online  

FD67 Lee Memorial Hospital Emergency Heliport
Fort Myers, Florida, USA

GOING TO FORT MYERS?


FAA INFORMATION EFFECTIVE 02 JANUARY 2020

Location

FAA Identifier: FD67
Lat/Long: 26-37-43.5000N 081-52-29.0000W
26-37.725000N 081-52.483333W
26.6287500,-81.8747222
(estimated)
Elevation: 12 ft. / 4 m (estimated)
Variation: 02W (1985)
Time zone: UTC -5 (UTC -4 during Daylight Saving Time)
Zip code: 33901

Heliport Operations

Heliport use: Private use, MEDICAL.
Activation date: 05/1986
Control tower: no
ARTCC: MIAMI CENTER
FSS: MIAMI FLIGHT SERVICE STATION
Attendance: CONTINUOUS
Wind indicator: yes
Segmented circle: yes
Lights: FOR PERIMETER LGTS CALL 813-334-5120.

Heliport Communications

WX ASOS at FMY (2.6 nm S): 123.725 (239-936-2318)
WX ASOS at RSW (8 nm SE): PHONE 239-561-0966
WX ASOS at PGD (18 nm N): 135.675 (941-639-0076)

Nearby radio navigation aids

VOR radial/distance  VOR name  Freq  Var
RSWr320/8.0LEE COUNTY VORTAC111.8002W
PGDr166/(18.4)PUNTA GORDA VOR110.2006W
LBVr244/28.5LA BELLE VORTAC110.4001E
CYYr353/29.0CYPRESS VOR/DME108.6003W

 
NDB name  Hdg/Dist  Freq  Var  ID
CALOO034/7.934103WFM ..-. --

Heliport Services

Runway Information

Helipad H1

Dimensions: 60 x 60 ft. / 18 x 18 m
Surface: asphalt, in good condition
Runway edge lights: PERI
Latitude: 26-37.725000N
Longitude: 081-52.483333W
Elevation: 12.0 ft.
Traffic pattern: leftleft
Markings: basic, in good condition

Heliport Ownership and Management from official FAA records

Ownership: Publicly-owned
Owner: HOSPITAL BOARD OF DIRECTORS
LEE MEMORIAL HOSPITAL, 2776 CLEVELAND AVE
FORT MYERS, FL 33901
Phone 239-343-2622
HOSPITAL BOARD OF DIRECTORS OF LEE COUNTY.
Manager: ROD ALLEN
LEE MEMORIAL HOSPITAL, 2776 CLEVELAND AVE
FORT MYERS, FL 33901
Phone (239) 424-3676
EMERGENCY DEPT.

Additional Remarks

A52-H1 20 FT LGT POLES 53 FT NORTH OF HELIPAD.
FOR CD CTC FORT MYERS APCH AT 239-768-1377, WHEN APCH CLSD CTC MIAMI ARTCC AT 305-716-1731.

Instrument Procedures

There are no published instrument procedures at FD67.

Some nearby airports with instrument procedures:

KFMY - Page Field Airport (3 nm S)
KRSW - Southwest Florida International Airport (8 nm SE)
KPGD - Punta Gorda Airport (18 nm N)
X14 - La Belle Municipal Airport (25 nm E)
KIMM - Immokalee Regional Airport (28 nm SE)
 
Loc | Ops | Rwys | IFR | FBO | Links
Com | Nav | Svcs | Stats | Notes

Reliance Aviation
AirBoss

 
Area around FD67 (Lee Memorial Hospital Emergency Heliport)
 
Road maps at: MapQuest Bing Google
 
Aerial photo
No photo
 
Sectional chart

 
Airport distance calculator
Flying to Lee Memorial Hospital Emergency Heliport? Find the distance to fly.

From to FD67

Sunrise and sunset
Times for 21-Jan-2020
 Local
(UTC-5)
 Zulu
(UTC)
Morning civil twilight06:5311:53
Sunrise07:1812:18
Sunset18:0023:00
Evening civil twilight18:2523:25

Current date and time
Zulu (UTC)  21-Jan-2020 14:52:26
Local (UTC-5)  21-Jan-2020 09:52:26
 
METAR
KFMY 
3nm S 
211353Z 36012KT 10SM CLR 09/04 A3020 RMK AO2 SLP230 T00940039
KRSW 
8nm SE 
211353Z 35010G18KT 10SM CLR 08/04 A3020 RMK AO2 SLP225 T00830039
KPGD 
19nm N 
211353Z 35011KT 10SM CLR 07/03 A3024 RMK AO2 SLP239 T00720033
TAF
KFMY 
3nm S 
211136Z 2112/2212 01011KT P6SM SKC FM211600 35015G25KT P6SM SKC FM220000 36012KT P6SM SKC FM220300 36012G18KT P6SM SKC
KRSW 
8nm SE 
211136Z 2112/2212 01011KT P6SM SKC FM211600 35015G25KT P6SM SKC FM220000 36012KT P6SM SKC FM220300 36012G18KT P6SM SKC
KPGD 
19nm N 
211136Z 2112/2212 36011KT P6SM SKC FM211600 35015G25KT P6SM SKC FM220000 36011KT P6SM SKC FM220500 36012G18KT P6SM SKC
NOTAMs
Click for the latest NOTAMs
NOTAMs are issued by the DoD/FAA and will open in a separate window not controlled by AirNav.

 

 
 

Would you like to see your business listed on this page?

 If your business provides an interesting product or service to pilots, flight crews, aircraft, or users of the Lee Memorial Hospital Emergency Heliport, you should consider listing it here.  To start the listing process, click on the button below
 
Add a business
 

Other Pages about Lee Memorial Hospital Emergency Heliport

Update a link
 
Copyright © AirNav, LLC. All rights reserved. Privacy Policy  Contact